Baugh, Oklahoma
Current Conditions -  °F | °C
As of 5:55 PM on Sunday 21 Dec 2014 (Local Time) from KOWP Reporting Station
Overcast Overcast  
Wind Chill: 44°   Ceiling: 1800
Heat Index: 49°   Visibility: 10mi
Dew Point: 42°   Wind: 12mph
Humidity: 75%   Direction: 150°SSE
Pressure: 29.81"   Gusts: 18mph
Location:  36.248°N, 96.4789°W
Report Text: KOWP 212355Z AUTO 15010G16KT 10SM OVC018 10/05 A2981 RMK AO2 T00950053 10105 20095
Loading
Personal Weather Stations






























Interactive Weather Map New forecast layout! Learn more

10-Day Weather Forecast

Advertisements
Track Severe Weather on mobile